createdAt,value
2019-05-12T00:01:19.923Z,10.30
2019-05-12T00:06:25.346Z,10.20
2019-05-12T00:11:30.690Z,10.20
2019-05-12T00:16:35.627Z,10.10
2019-05-12T00:21:41.502Z,10.00
2019-05-12T00:26:47.814Z,9.90
2019-05-12T00:31:53.044Z,9.80
2019-05-12T00:36:58.515Z,9.80
2019-05-12T00:42:03.491Z,9.70
2019-05-12T00:47:08.821Z,9.60
2019-05-12T00:52:14.194Z,9.50
2019-05-12T00:57:19.520Z,9.40
2019-05-12T01:02:25.187Z,9.40
2019-05-12T01:07:30.432Z,9.30
2019-05-12T01:12:35.389Z,9.20
2019-05-12T01:17:40.584Z,9.20
2019-05-12T01:22:50.410Z,9.10
2019-05-12T01:27:54.071Z,9.10
2019-05-12T01:32:59.801Z,9.10
2019-05-12T01:38:07.999Z,9.10
2019-05-12T01:43:13.107Z,9.10
2019-05-12T01:48:18.576Z,9.10
2019-05-12T01:53:23.609Z,9.00
2019-05-12T01:58:28.957Z,9.00
2019-05-12T02:03:33.906Z,8.90
2019-05-12T02:14:21.299Z,8.90
2019-05-12T02:19:28.242Z,8.90
2019-05-12T02:24:33.659Z,8.90
2019-05-12T02:29:38.886Z,8.90
2019-05-12T02:34:45.707Z,8.90
2019-05-12T02:39:51.528Z,8.80
2019-05-12T02:45:15.857Z,8.70
2019-05-12T02:50:40.075Z,8.70
2019-05-12T02:55:47.811Z,8.60
2019-05-12T03:00:56.089Z,8.50
2019-05-12T03:06:05.474Z,8.60
2019-05-12T03:11:29.349Z,8.50
2019-05-12T03:16:35.092Z,8.50
2019-05-12T03:22:00.168Z,8.40
2019-05-12T03:27:05.348Z,8.40
2019-05-12T03:32:10.550Z,8.40
2019-05-12T03:37:17.615Z,8.40
2019-05-12T03:42:25.059Z,8.40
2019-05-12T03:47:29.505Z,8.40
2019-05-12T03:52:35.206Z,8.40
2019-05-12T03:57:40.622Z,8.30
2019-05-12T04:02:45.968Z,8.30
2019-05-12T04:07:54.490Z,8.30
2019-05-12T04:12:58.141Z,8.30
2019-05-12T04:18:05.701Z,8.30
2019-05-12T04:23:09.942Z,8.30
2019-05-12T04:28:15.383Z,8.30
2019-05-12T04:33:20.865Z,8.30
2019-05-12T04:38:26.103Z,8.30
2019-05-12T04:43:31.286Z,8.30
2019-05-12T04:48:36.398Z,8.30
2019-05-12T04:53:44.664Z,8.30
2019-05-12T04:58:48.349Z,8.30
2019-05-12T05:03:54.509Z,8.30
2019-05-12T05:09:00.129Z,8.30
2019-05-12T05:14:06.324Z,8.30
2019-05-12T05:19:13.317Z,8.30
2019-05-12T05:24:18.255Z,8.30
2019-05-12T05:29:24.046Z,8.30
2019-05-12T05:34:29.167Z,8.30
2019-05-12T05:39:35.783Z,8.30
2019-05-12T05:44:40.620Z,8.30
2019-05-12T05:49:45.998Z,8.30
2019-05-12T05:54:53.137Z,8.30
2019-05-12T05:59:58.040Z,8.30
2019-05-12T06:05:04.432Z,8.30
2019-05-12T06:10:11.263Z,8.20
2019-05-12T06:15:16.539Z,8.20
2019-05-12T06:20:23.758Z,8.30
2019-05-12T06:25:44.545Z,8.30
2019-05-12T06:30:43.928Z,8.40
2019-05-12T06:35:45.083Z,8.40
2019-05-12T06:40:50.699Z,8.40
2019-05-12T06:45:56.160Z,8.40
2019-05-12T06:51:03.883Z,8.40
2019-05-12T06:56:09.490Z,8.50
2019-05-12T07:01:19.377Z,8.50
2019-05-12T07:06:24.792Z,8.60
2019-05-12T07:11:41.508Z,8.60
2019-05-12T07:17:01.519Z,8.60
2019-05-12T07:22:18.104Z,8.70
2019-05-12T07:27:13.946Z,8.70
2019-05-12T07:32:21.653Z,8.70
2019-05-12T07:37:29.984Z,8.80
2019-05-12T07:42:39.316Z,8.70
2019-05-12T07:47:41.678Z,8.80
2019-05-12T07:52:47.033Z,8.80
2019-05-12T07:57:58.079Z,8.80
2019-05-12T08:02:58.694Z,8.80
2019-05-12T08:08:10.647Z,8.90
2019-05-12T08:13:10.921Z,8.90
2019-05-12T08:18:16.242Z,8.90
2019-05-12T08:23:23.261Z,8.90
2019-05-12T08:28:36.106Z,8.90
2019-05-12T08:33:35.197Z,9.00
2019-05-12T08:38:40.574Z,9.00
2019-05-12T08:43:49.566Z,9.10
2019-05-12T08:49:00.032Z,9.20
2019-05-12T08:54:05.395Z,9.30
2019-05-12T08:59:09.581Z,9.30
2019-05-12T09:04:18.008Z,9.40
2019-05-12T09:09:19.449Z,9.40
2019-05-12T09:14:24.500Z,9.40
2019-05-12T09:19:29.680Z,9.50
2019-05-12T09:24:34.641Z,9.60
2019-05-12T09:29:40.054Z,9.70
2019-05-12T09:34:52.735Z,9.70
2019-05-12T09:39:53.849Z,9.80
2019-05-12T09:44:59.969Z,9.80
2019-05-12T09:50:09.605Z,9.80
2019-05-12T09:55:34.317Z,9.80
2019-05-12T10:00:39.678Z,9.80
2019-05-12T10:05:44.820Z,9.80
2019-05-12T10:10:49.815Z,9.70
2019-05-12T10:15:58.764Z,9.70
2019-05-12T10:21:20.999Z,9.60
2019-05-12T10:26:26.967Z,9.50
2019-05-12T10:31:35.780Z,9.50
2019-05-12T10:36:39.182Z,9.40
2019-05-12T10:41:46.078Z,9.40
2019-05-12T10:46:53.803Z,9.30
2019-05-12T10:51:59.438Z,9.30
2019-05-12T10:57:05.133Z,9.20
2019-05-12T11:02:10.537Z,9.20
2019-05-12T11:07:16.137Z,9.20
2019-05-12T11:12:25.280Z,9.00
2019-05-12T11:17:30.082Z,8.90
2019-05-12T11:22:54.530Z,8.90
2019-05-12T11:27:59.793Z,8.80
2019-05-12T11:33:04.886Z,8.80
2019-05-12T11:38:09.969Z,8.80
2019-05-12T11:43:15.166Z,8.80
2019-05-12T11:48:23.331Z,8.80
2019-05-12T11:53:31.138Z,8.70
2019-05-12T11:58:35.184Z,8.70
2019-05-12T12:03:40.314Z,8.70
2019-05-12T12:08:45.490Z,8.60
2019-05-12T12:13:53.442Z,8.70
2019-05-12T12:19:02.720Z,8.70
2019-05-12T12:24:30.018Z,8.70
2019-05-12T12:29:30.737Z,8.70
2019-05-12T12:34:35.731Z,8.60
2019-05-12T12:39:40.775Z,8.70
2019-05-12T12:44:46.237Z,8.70
2019-05-12T12:49:51.611Z,8.70
2019-05-12T12:54:59.342Z,8.70
2019-05-12T13:00:03.906Z,8.70
2019-05-12T13:05:28.498Z,8.70
2019-05-12T13:10:33.818Z,8.70
2019-05-12T13:15:38.743Z,8.80
2019-05-12T13:20:44.001Z,8.80
2019-05-12T13:25:51.944Z,8.80
2019-05-12T13:31:07.949Z,8.80
2019-05-12T13:36:04.295Z,8.90
2019-05-12T13:41:14.701Z,8.90
2019-05-12T13:46:16.764Z,8.80
2019-05-12T13:51:24.172Z,8.80
2019-05-12T13:56:32.958Z,8.80
2019-05-12T14:01:40.110Z,8.80
2019-05-12T14:06:42.699Z,8.80
2019-05-12T14:11:48.217Z,8.70
2019-05-12T14:16:59.094Z,8.70
2019-05-12T14:22:00.318Z,8.70
2019-05-12T14:27:05.686Z,8.60
2019-05-12T14:32:12.303Z,8.60
2019-05-12T14:37:18.056Z,8.70
2019-05-12T14:42:26.095Z,8.60
2019-05-12T14:47:30.452Z,8.60
2019-05-12T14:52:35.741Z,8.60
2019-05-12T14:57:41.060Z,8.60
2019-05-12T15:02:46.464Z,8.60
2019-05-12T15:07:56.791Z,8.60
2019-05-12T15:12:58.398Z,8.60
2019-05-12T15:18:08.948Z,8.50
2019-05-12T15:23:10.439Z,8.50
2019-05-12T15:28:15.881Z,8.50
2019-05-12T15:33:20.925Z,8.40
2019-05-12T15:38:26.303Z,8.40
2019-05-12T15:43:35.717Z,8.40
2019-05-12T15:48:38.798Z,8.40
2019-05-12T15:53:44.588Z,8.40
2019-05-12T15:58:50.155Z,8.30
2019-05-12T16:03:55.489Z,8.30
2019-05-12T16:09:01.258Z,8.40
2019-05-12T16:14:30.364Z,8.40
2019-05-12T16:19:34.514Z,8.40
2019-05-12T16:24:43.409Z,8.30
2019-05-12T16:29:49.912Z,8.30
2019-05-12T16:34:54.142Z,8.30
2019-05-12T16:39:59.570Z,8.30
2019-05-12T16:45:20.177Z,8.30
2019-05-12T16:50:49.280Z,8.30
2019-05-12T16:55:54.207Z,8.30
2019-05-12T17:00:59.223Z,8.30
2019-05-12T17:06:47.143Z,8.30
2019-05-12T17:12:23.919Z,8.30
2019-05-12T17:17:44.789Z,8.30
2019-05-12T17:23:03.421Z,8.30
2019-05-12T17:28:13.280Z,8.30
2019-05-12T17:33:34.282Z,8.30
2019-05-12T17:38:39.922Z,8.30
2019-05-12T17:43:54.924Z,8.30
2019-05-12T17:48:53.265Z,8.20
2019-05-12T17:54:45.365Z,8.30
2019-05-12T18:00:10.733Z,8.20
2019-05-12T18:05:16.090Z,8.20
2019-05-12T18:10:23.889Z,8.20
2019-05-12T18:15:33.264Z,8.20
2019-05-12T18:20:39.527Z,8.20
2019-05-12T18:26:03.149Z,8.20
2019-05-12T18:31:08.748Z,8.30
2019-05-12T18:36:14.455Z,8.20
2019-05-12T18:41:19.833Z,8.20
2019-05-12T18:46:25.211Z,8.20
2019-05-12T18:51:30.748Z,8.20
2019-05-12T18:56:36.529Z,8.10
2019-05-12T19:01:43.594Z,8.10
2019-05-12T19:06:54.321Z,8.10
2019-05-12T19:12:22.542Z,8.10
2019-05-12T19:17:25.813Z,8.00
2019-05-12T19:22:31.020Z,8.00
2019-05-12T19:27:36.542Z,8.00
2019-05-12T19:32:41.440Z,7.90
2019-05-12T19:38:06.054Z,7.90
2019-05-12T19:43:13.957Z,7.90
2019-05-12T19:48:24.870Z,7.80
2019-05-12T19:53:25.329Z,7.80
2019-05-12T19:58:30.288Z,7.80
2019-05-12T20:03:35.627Z,7.80
2019-05-12T20:08:40.800Z,7.70
2019-05-12T20:13:45.720Z,7.70
2019-05-12T20:18:50.948Z,7.70
2019-05-12T20:23:56.031Z,7.70
2019-05-12T20:29:01.275Z,7.70
2019-05-12T20:34:25.654Z,7.70
2019-05-12T20:39:31.198Z,7.60
2019-05-12T20:44:36.220Z,7.70
2019-05-12T20:49:45.063Z,7.60
2019-05-12T20:55:07.299Z,7.60
2019-05-12T21:00:14.149Z,7.70
2019-05-12T21:05:20.242Z,7.70
2019-05-12T21:10:37.653Z,7.70
2019-05-12T21:15:45.539Z,7.70
2019-05-12T21:20:52.187Z,7.70
2019-05-12T21:26:15.543Z,7.60
2019-05-12T21:31:26.001Z,7.60
2019-05-12T21:36:29.580Z,7.60
2019-05-12T21:41:34.518Z,7.50
2019-05-12T21:46:47.478Z,7.60
2019-05-12T21:51:50.414Z,7.50
2019-05-12T21:57:12.987Z,7.50
2019-05-12T22:02:19.666Z,7.40
2019-05-12T22:07:29.561Z,7.40
2019-05-12T22:12:33.307Z,7.40
2019-05-12T22:18:00.899Z,7.30
2019-05-12T22:23:10.137Z,7.30
2019-05-12T22:28:13.521Z,7.30
2019-05-12T22:33:18.869Z,7.30
2019-05-12T22:38:24.767Z,7.20
2019-05-12T22:43:31.342Z,7.20
2019-05-12T22:48:40.449Z,7.10
2019-05-12T22:54:07.055Z,7.10
2019-05-12T22:59:09.918Z,7.00
2019-05-12T23:04:15.108Z,6.90
2019-05-12T23:09:27.311Z,6.80
2019-05-12T23:14:27.491Z,6.80
2019-05-12T23:19:34.008Z,6.80
2019-05-12T23:24:40.721Z,6.70
2019-05-12T23:29:46.084Z,6.70
2019-05-12T23:35:10.378Z,6.70
2019-05-12T23:40:16.545Z,6.70
2019-05-12T23:45:24.210Z,6.70
2019-05-12T23:50:48.158Z,6.70
2019-05-12T23:56:05.368Z,6.70
